sensor_id;sensor_type;location;lat;lon;timestamp;P1;durP1;ratioP1;P2;durP2;ratioP2
2784;SDS011;57944;48.722;9.316;2023-07-29T00:00:07;10.07;;;5.93;;
2784;SDS011;57944;48.722;9.316;2023-07-29T00:02:42;8.50;;;5.47;;
2784;SDS011;57944;48.722;9.316;2023-07-29T00:05:13;7.50;;;4.40;;
2784;SDS011;57944;48.722;9.316;2023-07-29T00:07:44;9.73;;;5.53;;
2784;SDS011;57944;48.722;9.316;2023-07-29T00:10:15;8.20;;;5.30;;
2784;SDS011;57944;48.722;9.316;2023-07-29T00:12:46;7.43;;;4.60;;
2784;SDS011;57944;48.722;9.316;2023-07-29T00:15:17;10.80;;;4.53;;
2784;SDS011;57944;48.722;9.316;2023-07-29T00:17:50;9.00;;;5.50;;
2784;SDS011;57944;48.722;9.316;2023-07-29T00:20:21;8.83;;;5.03;;
2784;SDS011;57944;48.722;9.316;2023-07-29T00:22:52;12.10;;;5.60;;
2784;SDS011;57944;48.722;9.316;2023-07-29T00:25:24;6.90;;;4.87;;
2784;SDS011;57944;48.722;9.316;2023-07-29T00:27:55;9.20;;;5.10;;
2784;SDS011;57944;48.722;9.316;2023-07-29T00:30:26;10.97;;;4.90;;
2784;SDS011;57944;48.722;9.316;2023-07-29T00:33:00;8.87;;;5.33;;
2784;SDS011;57944;48.722;9.316;2023-07-29T00:35:30;9.03;;;5.63;;
2784;SDS011;57944;48.722;9.316;2023-07-29T00:38:01;7.03;;;5.00;;
2784;SDS011;57944;48.722;9.316;2023-07-29T00:40:31;6.93;;;5.10;;
2784;SDS011;57944;48.722;9.316;2023-07-29T00:43:05;10.20;;;4.20;;
2784;SDS011;57944;48.722;9.316;2023-07-29T00:45:35;7.10;;;4.00;;
2784;SDS011;57944;48.722;9.316;2023-07-29T00:48:09;38.93;;;20.00;;
2784;SDS011;57944;48.722;9.316;2023-07-29T00:50:40;15.63;;;8.40;;
2784;SDS011;57944;48.722;9.316;2023-07-29T00:53:11;9.70;;;6.10;;
2784;SDS011;57944;48.722;9.316;2023-07-29T00:55:39;8.80;;;5.70;;
2784;SDS011;57944;48.722;9.316;2023-07-29T00:58:10;7.57;;;4.70;;
2784;SDS011;57944;48.722;9.316;2023-07-29T01:00:41;6.87;;;3.77;;
2784;SDS011;57944;48.722;9.316;2023-07-29T01:03:14;14.27;;;5.47;;
2784;SDS011;57944;48.722;9.316;2023-07-29T01:05:49;8.70;;;4.77;;
2784;SDS011;57944;48.722;9.316;2023-07-29T01:08:31;7.03;;;4.30;;
2784;SDS011;57944;48.722;9.316;2023-07-29T01:11:16;7.47;;;4.50;;
2784;SDS011;57944;48.722;9.316;2023-07-29T01:14:04;6.07;;;4.20;;
2784;SDS011;57944;48.722;9.316;2023-07-29T01:16:45;9.60;;;3.47;;
2784;SDS011;57944;48.722;9.316;2023-07-29T01:19:26;7.50;;;4.10;;
2784;SDS011;57944;48.722;9.316;2023-07-29T01:22:11;5.50;;;3.10;;
2784;SDS011;57944;48.722;9.316;2023-07-29T01:24:48;6.03;;;3.80;;
2784;SDS011;57944;48.722;9.316;2023-07-29T01:27:19;5.63;;;3.40;;
2784;SDS011;57944;48.722;9.316;2023-07-29T01:29:50;5.30;;;3.50;;
2784;SDS011;57944;48.722;9.316;2023-07-29T01:32:22;7.33;;;3.57;;
2784;SDS011;57944;48.722;9.316;2023-07-29T01:35:03;7.43;;;3.67;;
2784;SDS011;57944;48.722;9.316;2023-07-29T01:37:37;8.20;;;4.77;;
2784;SDS011;57944;48.722;9.316;2023-07-29T01:40:13;7.93;;;4.40;;
2784;SDS011;57944;48.722;9.316;2023-07-29T01:42:44;9.90;;;3.43;;
2784;SDS011;57944;48.722;9.316;2023-07-29T01:45:15;8.63;;;3.87;;
2784;SDS011;57944;48.722;9.316;2023-07-29T01:47:46;10.20;;;5.17;;
2784;SDS011;57944;48.722;9.316;2023-07-29T01:50:17;5.63;;;3.97;;
2784;SDS011;57944;48.722;9.316;2023-07-29T01:52:47;8.33;;;3.70;;
2784;SDS011;57944;48.722;9.316;2023-07-29T01:55:21;8.93;;;4.63;;
2784;SDS011;57944;48.722;9.316;2023-07-29T01:57:52;10.13;;;4.97;;
2784;SDS011;57944;48.722;9.316;2023-07-29T02:00:23;8.20;;;4.13;;
2784;SDS011;57944;48.722;9.316;2023-07-29T02:02:54;6.23;;;4.17;;
2784;SDS011;57944;48.722;9.316;2023-07-29T02:05:25;7.20;;;4.53;;
2784;SDS011;57944;48.722;9.316;2023-07-29T02:07:56;7.10;;;4.33;;
2784;SDS011;57944;48.722;9.316;2023-07-29T02:10:29;8.00;;;4.93;;
2784;SDS011;57944;48.722;9.316;2023-07-29T02:13:00;9.30;;;5.13;;
2784;SDS011;57944;48.722;9.316;2023-07-29T02:15:30;5.40;;;4.13;;
2784;SDS011;57944;48.722;9.316;2023-07-29T02:18:01;6.90;;;4.63;;
2784;SDS011;57944;48.722;9.316;2023-07-29T02:20:33;6.07;;;3.73;;
2784;SDS011;57944;48.722;9.316;2023-07-29T02:23:03;7.10;;;3.93;;
2784;SDS011;57944;48.722;9.316;2023-07-29T02:25:37;9.03;;;4.50;;
2784;SDS011;57944;48.722;9.316;2023-07-29T02:28:08;6.50;;;4.30;;
2784;SDS011;57944;48.722;9.316;2023-07-29T02:30:40;7.80;;;3.73;;
2784;SDS011;57944;48.722;9.316;2023-07-29T02:33:12;9.43;;;4.20;;
2784;SDS011;57944;48.722;9.316;2023-07-29T02:35:43;6.33;;;4.93;;
2784;SDS011;57944;48.722;9.316;2023-07-29T02:38:14;9.30;;;3.90;;
2784;SDS011;57944;48.722;9.316;2023-07-29T02:40:47;12.57;;;4.93;;
2784;SDS011;57944;48.722;9.316;2023-07-29T02:43:17;6.67;;;4.50;;
2784;SDS011;57944;48.722;9.316;2023-07-29T02:45:48;10.43;;;4.87;;
2784;SDS011;57944;48.722;9.316;2023-07-29T02:48:19;7.83;;;4.30;;
2784;SDS011;57944;48.722;9.316;2023-07-29T02:50:49;7.90;;;3.80;;
2784;SDS011;57944;48.722;9.316;2023-07-29T02:53:21;10.40;;;4.70;;
2784;SDS011;57944;48.722;9.316;2023-07-29T02:55:55;6.07;;;4.10;;
2784;SDS011;57944;48.722;9.316;2023-07-29T02:58:25;8.27;;;3.80;;
2784;SDS011;57944;48.722;9.316;2023-07-29T03:01:00;6.53;;;4.50;;
2784;SDS011;57944;48.722;9.316;2023-07-29T03:03:31;7.10;;;4.40;;
2784;SDS011;57944;48.722;9.316;2023-07-29T03:06:03;11.10;;;4.60;;
2784;SDS011;57944;48.722;9.316;2023-07-29T03:08:36;6.07;;;4.23;;
2784;SDS011;57944;48.722;9.316;2023-07-29T03:11:09;5.40;;;3.90;;
2784;SDS011;57944;48.722;9.316;2023-07-29T03:13:41;6.57;;;4.83;;
2784;SDS011;57944;48.722;9.316;2023-07-29T03:16:13;7.20;;;4.50;;
2784;SDS011;57944;48.722;9.316;2023-07-29T03:18:51;6.20;;;4.07;;
2784;SDS011;57944;48.722;9.316;2023-07-29T03:21:21;9.13;;;4.23;;
2784;SDS011;57944;48.722;9.316;2023-07-29T03:23:52;8.43;;;4.27;;
2784;SDS011;57944;48.722;9.316;2023-07-29T03:26:25;5.57;;;3.70;;
2784;SDS011;57944;48.722;9.316;2023-07-29T03:28:56;5.83;;;3.67;;
2784;SDS011;57944;48.722;9.316;2023-07-29T03:31:26;6.60;;;4.30;;
2784;SDS011;57944;48.722;9.316;2023-07-29T03:33:57;6.10;;;3.67;;
2784;SDS011;57944;48.722;9.316;2023-07-29T03:36:28;5.47;;;4.00;;
2784;SDS011;57944;48.722;9.316;2023-07-29T03:38:58;7.40;;;4.50;;
2784;SDS011;57944;48.722;9.316;2023-07-29T03:41:32;5.87;;;4.60;;
2784;SDS011;57944;48.722;9.316;2023-07-29T03:44:03;6.57;;;4.70;;
2784;SDS011;57944;48.722;9.316;2023-07-29T03:46:34;7.50;;;5.83;;
2784;SDS011;57944;48.722;9.316;2023-07-29T03:49:07;10.97;;;4.40;;
2784;SDS011;57944;48.722;9.316;2023-07-29T03:51:38;8.67;;;4.73;;
2784;SDS011;57944;48.722;9.316;2023-07-29T03:54:09;8.83;;;5.40;;
2784;SDS011;57944;48.722;9.316;2023-07-29T03:56:42;7.67;;;4.73;;
2784;SDS011;57944;48.722;9.316;2023-07-29T03:59:12;7.60;;;5.03;;
2784;SDS011;57944;48.722;9.316;2023-07-29T04:01:43;7.20;;;4.60;;
2784;SDS011;57944;48.722;9.316;2023-07-29T04:04:14;17.33;;;5.83;;
2784;SDS011;57944;48.722;9.316;2023-07-29T04:06:44;7.30;;;5.03;;
2784;SDS011;57944;48.722;9.316;2023-07-29T04:09:15;10.53;;;5.30;;
2784;SDS011;57944;48.722;9.316;2023-07-29T04:11:48;10.00;;;4.53;;
2784;SDS011;57944;48.722;9.316;2023-07-29T04:14:20;9.27;;;5.97;;
2784;SDS011;57944;48.722;9.316;2023-07-29T04:16:50;6.90;;;5.17;;
2784;SDS011;57944;48.722;9.316;2023-07-29T04:19:21;8.37;;;5.00;;
2784;SDS011;57944;48.722;9.316;2023-07-29T04:21:52;7.17;;;4.90;;
2784;SDS011;57944;48.722;9.316;2023-07-29T04:24:23;6.03;;;5.03;;
2784;SDS011;57944;48.722;9.316;2023-07-29T04:26:56;6.40;;;4.80;;
2784;SDS011;57944;48.722;9.316;2023-07-29T04:29:27;9.50;;;5.40;;
2784;SDS011;57944;48.722;9.316;2023-07-29T04:31:57;8.27;;;4.40;;
2784;SDS011;57944;48.722;9.316;2023-07-29T04:34:28;12.23;;;5.50;;
2784;SDS011;57944;48.722;9.316;2023-07-29T04:36:59;5.63;;;4.70;;
2784;SDS011;57944;48.722;9.316;2023-07-29T04:39:29;8.97;;;5.87;;
2784;SDS011;57944;48.722;9.316;2023-07-29T04:42:03;13.53;;;5.07;;
2784;SDS011;57944;48.722;9.316;2023-07-29T04:44:34;12.60;;;5.47;;
2784;SDS011;57944;48.722;9.316;2023-07-29T04:47:05;7.93;;;5.80;;
2784;SDS011;57944;48.722;9.316;2023-07-29T04:49:35;57.50;;;7.70;;
2784;SDS011;57944;48.722;9.316;2023-07-29T04:52:07;9.03;;;5.70;;
2784;SDS011;57944;48.722;9.316;2023-07-29T04:54:38;9.70;;;5.93;;
2784;SDS011;57944;48.722;9.316;2023-07-29T04:57:11;10.67;;;5.77;;
2784;SDS011;57944;48.722;9.316;2023-07-29T04:59:42;8.90;;;4.70;;
2784;SDS011;57944;48.722;9.316;2023-07-29T05:02:12;24.17;;;6.70;;
2784;SDS011;57944;48.722;9.316;2023-07-29T05:04:43;16.87;;;6.90;;
2784;SDS011;57944;48.722;9.316;2023-07-29T05:07:13;11.20;;;6.10;;
2784;SDS011;57944;48.722;9.316;2023-07-29T05:09:44;14.13;;;6.43;;
2784;SDS011;57944;48.722;9.316;2023-07-29T05:12:17;8.63;;;5.70;;
2784;SDS011;57944;48.722;9.316;2023-07-29T05:14:48;23.03;;;5.97;;
2784;SDS011;57944;48.722;9.316;2023-07-29T05:17:18;8.80;;;5.30;;
2784;SDS011;57944;48.722;9.316;2023-07-29T05:19:49;19.53;;;6.17;;
2784;SDS011;57944;48.722;9.316;2023-07-29T05:22:20;8.83;;;5.20;;
2784;SDS011;57944;48.722;9.316;2023-07-29T05:24:51;9.67;;;5.60;;
2784;SDS011;57944;48.722;9.316;2023-07-29T05:27:24;7.93;;;4.97;;
2784;SDS011;57944;48.722;9.316;2023-07-29T05:29:55;11.73;;;5.20;;
2784;SDS011;57944;48.722;9.316;2023-07-29T05:32:25;10.70;;;4.80;;
2784;SDS011;57944;48.722;9.316;2023-07-29T05:34:56;9.13;;;5.37;;
2784;SDS011;57944;48.722;9.316;2023-07-29T05:37:27;11.20;;;5.57;;
2784;SDS011;57944;48.722;9.316;2023-07-29T05:39:57;10.93;;;5.67;;
2784;SDS011;57944;48.722;9.316;2023-07-29T05:42:31;7.67;;;5.10;;
2784;SDS011;57944;48.722;9.316;2023-07-29T05:45:02;7.03;;;4.90;;
2784;SDS011;57944;48.722;9.316;2023-07-29T05:47:33;10.30;;;5.37;;
2784;SDS011;57944;48.722;9.316;2023-07-29T05:50:04;7.67;;;5.20;;
2784;SDS011;57944;48.722;9.316;2023-07-29T05:52:36;7.27;;;5.40;;
2784;SDS011;57944;48.722;9.316;2023-07-29T05:55:07;9.57;;;5.43;;
2784;SDS011;57944;48.722;9.316;2023-07-29T05:57:41;9.07;;;5.20;;
2784;SDS011;57944;48.722;9.316;2023-07-29T06:00:12;9.17;;;3.80;;
2784;SDS011;57944;48.722;9.316;2023-07-29T06:02:43;6.97;;;5.20;;
2784;SDS011;57944;48.722;9.316;2023-07-29T06:05:19;8.40;;;5.33;;
2784;SDS011;57944;48.722;9.316;2023-07-29T06:07:49;8.83;;;5.00;;
2784;SDS011;57944;48.722;9.316;2023-07-29T06:10:20;8.80;;;7.00;;
2784;SDS011;57944;48.722;9.316;2023-07-29T06:12:53;9.80;;;5.47;;
2784;SDS011;57944;48.722;9.316;2023-07-29T06:15:24;6.80;;;5.47;;
2784;SDS011;57944;48.722;9.316;2023-07-29T06:17:55;8.77;;;4.90;;
2784;SDS011;57944;48.722;9.316;2023-07-29T06:20:26;8.30;;;5.53;;
2784;SDS011;57944;48.722;9.316;2023-07-29T06:22:56;6.90;;;4.60;;
2784;SDS011;57944;48.722;9.316;2023-07-29T06:25:28;8.20;;;5.47;;
2784;SDS011;57944;48.722;9.316;2023-07-29T06:28:01;8.60;;;5.50;;
2784;SDS011;57944;48.722;9.316;2023-07-29T06:30:32;10.03;;;6.13;;
2784;SDS011;57944;48.722;9.316;2023-07-29T06:33:03;13.97;;;4.70;;
2784;SDS011;57944;48.722;9.316;2023-07-29T06:35:33;16.63;;;4.80;;
2784;SDS011;57944;48.722;9.316;2023-07-29T06:38:04;7.30;;;4.20;;
2784;SDS011;57944;48.722;9.316;2023-07-29T06:40:35;7.00;;;3.50;;
2784;SDS011;57944;48.722;9.316;2023-07-29T06:43:08;7.60;;;4.30;;
2784;SDS011;57944;48.722;9.316;2023-07-29T06:45:38;6.50;;;4.30;;
2784;SDS011;57944;48.722;9.316;2023-07-29T06:48:09;6.57;;;4.80;;
2784;SDS011;57944;48.722;9.316;2023-07-29T06:50:39;8.40;;;4.03;;
2784;SDS011;57944;48.722;9.316;2023-07-29T06:53:10;8.30;;;4.23;;
2784;SDS011;57944;48.722;9.316;2023-07-29T06:55:41;6.60;;;4.47;;
2784;SDS011;57944;48.722;9.316;2023-07-29T06:58:14;11.83;;;4.30;;
2784;SDS011;57944;48.722;9.316;2023-07-29T07:00:44;7.70;;;4.40;;
2784;SDS011;57944;48.722;9.316;2023-07-29T07:03:15;5.90;;;3.83;;
2784;SDS011;57944;48.722;9.316;2023-07-29T07:05:46;5.90;;;3.63;;
2784;SDS011;57944;48.722;9.316;2023-07-29T07:08:16;7.00;;;3.73;;
2784;SDS011;57944;48.722;9.316;2023-07-29T07:10:47;8.30;;;3.80;;
2784;SDS011;57944;48.722;9.316;2023-07-29T07:13:20;9.53;;;4.50;;
2784;SDS011;57944;48.722;9.316;2023-07-29T07:15:51;6.33;;;3.93;;
2784;SDS011;57944;48.722;9.316;2023-07-29T07:18:24;8.00;;;3.90;;
2784;SDS011;57944;48.722;9.316;2023-07-29T07:20:54;9.33;;;4.10;;
2784;SDS011;57944;48.722;9.316;2023-07-29T07:23:25;8.30;;;4.50;;
2784;SDS011;57944;48.722;9.316;2023-07-29T07:25:56;5.83;;;3.40;;
2784;SDS011;57944;48.722;9.316;2023-07-29T07:28:29;5.30;;;3.20;;
2784;SDS011;57944;48.722;9.316;2023-07-29T07:30:59;5.30;;;2.80;;
2784;SDS011;57944;48.722;9.316;2023-07-29T07:33:30;6.40;;;2.60;;
2784;SDS011;57944;48.722;9.316;2023-07-29T07:36:01;6.20;;;2.30;;
2784;SDS011;57944;48.722;9.316;2023-07-29T07:38:31;3.93;;;2.37;;
2784;SDS011;57944;48.722;9.316;2023-07-29T07:41:02;8.73;;;2.37;;
2784;SDS011;57944;48.722;9.316;2023-07-29T07:43:35;4.80;;;2.27;;
2784;SDS011;57944;48.722;9.316;2023-07-29T07:46:06;6.13;;;2.50;;
2784;SDS011;57944;48.722;9.316;2023-07-29T07:48:37;6.50;;;2.40;;
2784;SDS011;57944;48.722;9.316;2023-07-29T07:51:10;3.13;;;1.77;;
2784;SDS011;57944;48.722;9.316;2023-07-29T07:53:41;5.47;;;2.20;;
2784;SDS011;57944;48.722;9.316;2023-07-29T07:56:11;3.10;;;1.43;;
2784;SDS011;57944;48.722;9.316;2023-07-29T07:58:42;7.37;;;1.77;;
2784;SDS011;57944;48.722;9.316;2023-07-29T08:01:13;4.90;;;1.97;;
2784;SDS011;57944;48.722;9.316;2023-07-29T08:03:43;8.50;;;1.80;;
2784;SDS011;57944;48.722;9.316;2023-07-29T08:06:14;4.60;;;2.10;;
2784;SDS011;57944;48.722;9.316;2023-07-29T08:08:44;4.23;;;2.80;;
2784;SDS011;57944;48.722;9.316;2023-07-29T08:11:15;7.60;;;2.87;;
2784;SDS011;57944;48.722;9.316;2023-07-29T08:13:48;4.50;;;2.67;;
2784;SDS011;57944;48.722;9.316;2023-07-29T08:16:19;3.73;;;2.17;;
2784;SDS011;57944;48.722;9.316;2023-07-29T08:18:49;4.40;;;2.60;;
2784;SDS011;57944;48.722;9.316;2023-07-29T08:21:20;4.67;;;2.83;;
2784;SDS011;57944;48.722;9.316;2023-07-29T08:23:51;7.60;;;3.33;;
2784;SDS011;57944;48.722;9.316;2023-07-29T08:26:21;4.67;;;2.83;;
2784;SDS011;57944;48.722;9.316;2023-07-29T08:28:54;4.60;;;3.53;;
2784;SDS011;57944;48.722;9.316;2023-07-29T08:31:25;5.20;;;2.90;;
2784;SDS011;57944;48.722;9.316;2023-07-29T08:33:57;4.53;;;3.10;;
2784;SDS011;57944;48.722;9.316;2023-07-29T08:36:28;7.40;;;3.60;;
2784;SDS011;57944;48.722;9.316;2023-07-29T08:38:58;6.63;;;3.87;;
2784;SDS011;57944;48.722;9.316;2023-07-29T08:41:31;5.97;;;3.13;;
2784;SDS011;57944;48.722;9.316;2023-07-29T08:44:09;5.67;;;3.43;;
2784;SDS011;57944;48.722;9.316;2023-07-29T08:46:52;4.70;;;3.07;;
2784;SDS011;57944;48.722;9.316;2023-07-29T08:49:24;10.90;;;2.57;;
2784;SDS011;57944;48.722;9.316;2023-07-29T08:51:55;7.50;;;2.83;;
2784;SDS011;57944;48.722;9.316;2023-07-29T08:54:27;9.33;;;3.20;;
2784;SDS011;57944;48.722;9.316;2023-07-29T08:56:58;4.70;;;2.97;;
2784;SDS011;57944;48.722;9.316;2023-07-29T08:59:32;5.63;;;2.43;;
2784;SDS011;57944;48.722;9.316;2023-07-29T09:02:03;8.73;;;3.67;;
2784;SDS011;57944;48.722;9.316;2023-07-29T09:04:33;5.17;;;2.77;;
2784;SDS011;57944;48.722;9.316;2023-07-29T09:07:04;6.33;;;2.73;;
2784;SDS011;57944;48.722;9.316;2023-07-29T09:09:36;9.10;;;2.77;;
2784;SDS011;57944;48.722;9.316;2023-07-29T09:12:07;6.03;;;3.13;;
2784;SDS011;57944;48.722;9.316;2023-07-29T09:14:41;5.70;;;2.70;;
2784;SDS011;57944;48.722;9.316;2023-07-29T09:17:11;5.80;;;2.80;;
2784;SDS011;57944;48.722;9.316;2023-07-29T09:19:46;6.60;;;3.07;;
2784;SDS011;57944;48.722;9.316;2023-07-29T09:22:17;3.73;;;2.43;;
2784;SDS011;57944;48.722;9.316;2023-07-29T09:24:49;4.03;;;2.43;;
2784;SDS011;57944;48.722;9.316;2023-07-29T09:27:24;4.60;;;2.27;;
2784;SDS011;57944;48.722;9.316;2023-07-29T09:29:59;3.43;;;2.20;;
2784;SDS011;57944;48.722;9.316;2023-07-29T09:32:30;5.87;;;2.40;;
2784;SDS011;57944;48.722;9.316;2023-07-29T09:35:01;3.87;;;2.57;;
2784;SDS011;57944;48.722;9.316;2023-07-29T09:37:32;7.13;;;2.60;;
2784;SDS011;57944;48.722;9.316;2023-07-29T09:40:03;3.90;;;2.30;;
2784;SDS011;57944;48.722;9.316;2023-07-29T09:42:34;5.63;;;2.50;;
2784;SDS011;57944;48.722;9.316;2023-07-29T09:45:08;6.07;;;3.47;;
2784;SDS011;57944;48.722;9.316;2023-07-29T09:47:39;3.37;;;2.10;;
2784;SDS011;57944;48.722;9.316;2023-07-29T09:50:09;5.00;;;2.47;;
2784;SDS011;57944;48.722;9.316;2023-07-29T09:52:40;4.13;;;2.17;;
2784;SDS011;57944;48.722;9.316;2023-07-29T09:55:12;7.03;;;2.57;;
2784;SDS011;57944;48.722;9.316;2023-07-29T09:57:46;5.80;;;2.20;;
2784;SDS011;57944;48.722;9.316;2023-07-29T10:00:19;5.40;;;2.20;;
2784;SDS011;57944;48.722;9.316;2023-07-29T10:02:50;4.37;;;2.40;;
2784;SDS011;57944;48.722;9.316;2023-07-29T10:05:22;5.83;;;2.40;;
2784;SDS011;57944;48.722;9.316;2023-07-29T10:07:55;17.27;;;4.27;;
2784;SDS011;57944;48.722;9.316;2023-07-29T10:10:26;3.80;;;2.53;;
2784;SDS011;57944;48.722;9.316;2023-07-29T10:12:58;5.10;;;2.43;;
2784;SDS011;57944;48.722;9.316;2023-07-29T10:15:32;5.47;;;2.57;;
2784;SDS011;57944;48.722;9.316;2023-07-29T10:18:03;4.20;;;2.63;;
2784;SDS011;57944;48.722;9.316;2023-07-29T10:20:34;6.70;;;2.70;;
2784;SDS011;57944;48.722;9.316;2023-07-29T10:23:06;4.50;;;2.10;;
2784;SDS011;57944;48.722;9.316;2023-07-29T10:25:39;6.13;;;4.10;;
2784;SDS011;57944;48.722;9.316;2023-07-29T10:28:16;10.30;;;3.90;;
2784;SDS011;57944;48.722;9.316;2023-07-29T10:30:52;5.00;;;3.20;;
2784;SDS011;57944;48.722;9.316;2023-07-29T10:33:24;5.50;;;2.50;;
2784;SDS011;57944;48.722;9.316;2023-07-29T10:35:55;4.73;;;2.27;;
2784;SDS011;57944;48.722;9.316;2023-07-29T10:38:25;4.83;;;2.90;;
2784;SDS011;57944;48.722;9.316;2023-07-29T10:40:57;4.70;;;2.83;;
2784;SDS011;57944;48.722;9.316;2023-07-29T10:43:32;6.40;;;3.43;;
2784;SDS011;57944;48.722;9.316;2023-07-29T10:46:17;6.53;;;2.90;;
2784;SDS011;57944;48.722;9.316;2023-07-29T10:48:52;17.47;;;3.53;;
2784;SDS011;57944;48.722;9.316;2023-07-29T10:51:25;4.33;;;3.00;;
2784;SDS011;57944;48.722;9.316;2023-07-29T10:53:59;4.57;;;2.60;;
2784;SDS011;57944;48.722;9.316;2023-07-29T10:56:31;4.50;;;2.90;;
2784;SDS011;57944;48.722;9.316;2023-07-29T11:02:11;5.27;;;2.43;;
2784;SDS011;57944;48.722;9.316;2023-07-29T11:04:46;4.50;;;2.80;;
2784;SDS011;57944;48.722;9.316;2023-07-29T11:07:20;5.40;;;2.40;;
2784;SDS011;57944;48.722;9.316;2023-07-29T11:09:57;4.80;;;2.07;;
2784;SDS011;57944;48.722;9.316;2023-07-29T11:12:36;4.30;;;2.50;;
2784;SDS011;57944;48.722;9.316;2023-07-29T11:15:13;4.20;;;2.90;;
2784;SDS011;57944;48.722;9.316;2023-07-29T11:17:49;3.97;;;2.20;;
2784;SDS011;57944;48.722;9.316;2023-07-29T11:20:21;4.50;;;2.63;;
2784;SDS011;57944;48.722;9.316;2023-07-29T11:22:53;4.80;;;2.87;;
2784;SDS011;57944;48.722;9.316;2023-07-29T11:25:26;3.83;;;2.37;;
2784;SDS011;57944;48.722;9.316;2023-07-29T11:27:58;4.03;;;2.20;;
2784;SDS011;57944;48.722;9.316;2023-07-29T11:30:32;3.30;;;2.13;;
2784;SDS011;57944;48.722;9.316;2023-07-29T11:33:06;3.60;;;2.17;;
2784;SDS011;57944;48.722;9.316;2023-07-29T11:35:36;5.30;;;2.70;;
2784;SDS011;57944;48.722;9.316;2023-07-29T11:38:08;3.47;;;2.07;;
2784;SDS011;57944;48.722;9.316;2023-07-29T11:40:44;4.27;;;2.67;;
2784;SDS011;57944;48.722;9.316;2023-07-29T11:43:24;4.20;;;2.70;;
2784;SDS011;57944;48.722;9.316;2023-07-29T11:45:56;3.80;;;2.40;;
2784;SDS011;57944;48.722;9.316;2023-07-29T11:48:33;5.53;;;2.17;;
2784;SDS011;57944;48.722;9.316;2023-07-29T11:51:03;4.17;;;2.63;;
2784;SDS011;57944;48.722;9.316;2023-07-29T11:53:34;4.10;;;2.37;;
2784;SDS011;57944;48.722;9.316;2023-07-29T11:56:05;3.97;;;2.37;;
2784;SDS011;57944;48.722;9.316;2023-07-29T11:58:36;4.03;;;2.60;;
2784;SDS011;57944;48.722;9.316;2023-07-29T12:01:07;4.17;;;2.70;;
2784;SDS011;57944;48.722;9.316;2023-07-29T12:03:41;4.00;;;3.00;;
2784;SDS011;57944;48.722;9.316;2023-07-29T12:06:12;4.27;;;2.90;;
2784;SDS011;57944;48.722;9.316;2023-07-29T12:08:44;7.13;;;3.00;;
2784;SDS011;57944;48.722;9.316;2023-07-29T12:11:16;4.60;;;2.80;;
2784;SDS011;57944;48.722;9.316;2023-07-29T12:13:47;4.43;;;2.87;;
2784;SDS011;57944;48.722;9.316;2023-07-29T12:16:18;4.20;;;2.73;;
2784;SDS011;57944;48.722;9.316;2023-07-29T12:18:52;5.27;;;2.33;;
2784;SDS011;57944;48.722;9.316;2023-07-29T12:21:22;4.70;;;2.70;;
2784;SDS011;57944;48.722;9.316;2023-07-29T12:23:53;4.20;;;2.50;;
2784;SDS011;57944;48.722;9.316;2023-07-29T12:26:27;4.20;;;2.90;;
2784;SDS011;57944;48.722;9.316;2023-07-29T12:28:58;4.60;;;2.90;;
2784;SDS011;57944;48.722;9.316;2023-07-29T12:31:30;4.20;;;2.57;;
2784;SDS011;57944;48.722;9.316;2023-07-29T12:34:04;4.60;;;2.87;;
2784;SDS011;57944;48.722;9.316;2023-07-29T12:36:41;4.50;;;2.90;;
2784;SDS011;57944;48.722;9.316;2023-07-29T12:39:17;4.77;;;3.03;;
2784;SDS011;57944;48.722;9.316;2023-07-29T12:41:50;4.23;;;2.33;;
2784;SDS011;57944;48.722;9.316;2023-07-29T12:44:22;4.50;;;3.43;;
2784;SDS011;57944;48.722;9.316;2023-07-29T12:46:53;5.53;;;2.60;;
2784;SDS011;57944;48.722;9.316;2023-07-29T12:49:27;5.50;;;2.70;;
2784;SDS011;57944;48.722;9.316;2023-07-29T12:51:58;5.60;;;3.07;;
2784;SDS011;57944;48.722;9.316;2023-07-29T12:54:29;4.17;;;2.53;;
2784;SDS011;57944;48.722;9.316;2023-07-29T12:56:59;5.30;;;2.67;;
2784;SDS011;57944;48.722;9.316;2023-07-29T12:59:30;4.07;;;2.17;;
2784;SDS011;57944;48.722;9.316;2023-07-29T13:02:00;4.47;;;2.30;;
2784;SDS011;57944;48.722;9.316;2023-07-29T13:04:36;6.30;;;2.80;;
2784;SDS011;57944;48.722;9.316;2023-07-29T13:07:06;5.13;;;3.20;;
2784;SDS011;57944;48.722;9.316;2023-07-29T13:09:37;3.90;;;2.63;;
2784;SDS011;57944;48.722;9.316;2023-07-29T13:12:07;3.73;;;2.63;;
2784;SDS011;57944;48.722;9.316;2023-07-29T13:14:38;7.00;;;3.00;;
2784;SDS011;57944;48.722;9.316;2023-07-29T13:17:09;5.10;;;2.70;;
2784;SDS011;57944;48.722;9.316;2023-07-29T13:19:42;4.73;;;2.90;;
2784;SDS011;57944;48.722;9.316;2023-07-29T13:22:12;6.03;;;3.00;;
2784;SDS011;57944;48.722;9.316;2023-07-29T13:24:43;4.80;;;3.10;;
2784;SDS011;57944;48.722;9.316;2023-07-29T13:27:13;5.03;;;2.60;;
2784;SDS011;57944;48.722;9.316;2023-07-29T13:29:44;4.03;;;2.73;;
2784;SDS011;57944;48.722;9.316;2023-07-29T13:32:15;5.30;;;3.13;;
2784;SDS011;57944;48.722;9.316;2023-07-29T13:34:48;6.23;;;3.10;;
2784;SDS011;57944;48.722;9.316;2023-07-29T13:37:19;5.37;;;2.70;;
2784;SDS011;57944;48.722;9.316;2023-07-29T13:39:49;4.97;;;2.73;;
2784;SDS011;57944;48.722;9.316;2023-07-29T13:42:20;4.50;;;2.80;;
2784;SDS011;57944;48.722;9.316;2023-07-29T13:44:50;4.87;;;3.03;;
2784;SDS011;57944;48.722;9.316;2023-07-29T13:47:21;4.60;;;2.43;;
2784;SDS011;57944;48.722;9.316;2023-07-29T13:49:54;4.30;;;2.77;;
2784;SDS011;57944;48.722;9.316;2023-07-29T13:52:24;5.87;;;2.70;;
2784;SDS011;57944;48.722;9.316;2023-07-29T13:54:55;3.87;;;2.00;;
2784;SDS011;57944;48.722;9.316;2023-07-29T13:57:26;6.20;;;2.60;;
2784;SDS011;57944;48.722;9.316;2023-07-29T13:59:56;7.83;;;2.77;;
2784;SDS011;57944;48.722;9.316;2023-07-29T14:02:36;4.70;;;2.73;;
2784;SDS011;57944;48.722;9.316;2023-07-29T14:05:10;6.60;;;3.10;;
2784;SDS011;57944;48.722;9.316;2023-07-29T14:07:41;8.60;;;3.03;;
2784;SDS011;57944;48.722;9.316;2023-07-29T14:10:11;5.17;;;2.77;;
2784;SDS011;57944;48.722;9.316;2023-07-29T14:12:42;5.33;;;2.60;;
2784;SDS011;57944;48.722;9.316;2023-07-29T14:15:12;4.47;;;3.10;;
2784;SDS011;57944;48.722;9.316;2023-07-29T14:17:43;4.50;;;2.67;;
2784;SDS011;57944;48.722;9.316;2023-07-29T14:20:17;3.90;;;2.30;;
2784;SDS011;57944;48.722;9.316;2023-07-29T14:22:48;5.43;;;3.53;;
2784;SDS011;57944;48.722;9.316;2023-07-29T14:25:18;4.53;;;2.90;;
2784;SDS011;57944;48.722;9.316;2023-07-29T14:27:49;4.40;;;2.37;;
2784;SDS011;57944;48.722;9.316;2023-07-29T14:30:19;4.53;;;2.70;;
2784;SDS011;57944;48.722;9.316;2023-07-29T14:32:50;4.53;;;2.10;;
2784;SDS011;57944;48.722;9.316;2023-07-29T14:35:23;4.53;;;3.07;;
2784;SDS011;57944;48.722;9.316;2023-07-29T14:37:54;4.50;;;2.67;;
2784;SDS011;57944;48.722;9.316;2023-07-29T14:40:24;4.80;;;3.17;;
2784;SDS011;57944;48.722;9.316;2023-07-29T14:42:56;3.97;;;2.87;;
2784;SDS011;57944;48.722;9.316;2023-07-29T14:45:26;6.13;;;3.13;;
2784;SDS011;57944;48.722;9.316;2023-07-29T14:47:57;3.73;;;2.73;;
2784;SDS011;57944;48.722;9.316;2023-07-29T14:50:30;4.13;;;2.77;;
2784;SDS011;57944;48.722;9.316;2023-07-29T14:53:01;9.40;;;3.27;;
2784;SDS011;57944;48.722;9.316;2023-07-29T14:55:31;7.20;;;3.40;;
2784;SDS011;57944;48.722;9.316;2023-07-29T14:58:02;6.50;;;4.00;;
2784;SDS011;57944;48.722;9.316;2023-07-29T15:00:33;7.87;;;4.77;;
2784;SDS011;57944;48.722;9.316;2023-07-29T15:03:03;8.17;;;3.30;;
2784;SDS011;57944;48.722;9.316;2023-07-29T15:05:37;5.47;;;3.20;;
2784;SDS011;57944;48.722;9.316;2023-07-29T15:08:07;3.70;;;2.53;;
2784;SDS011;57944;48.722;9.316;2023-07-29T15:10:38;4.27;;;2.90;;
2784;SDS011;57944;48.722;9.316;2023-07-29T15:13:08;4.30;;;3.10;;
2784;SDS011;57944;48.722;9.316;2023-07-29T15:15:40;4.10;;;2.93;;
2784;SDS011;57944;48.722;9.316;2023-07-29T15:18:11;4.20;;;2.60;;
2784;SDS011;57944;48.722;9.316;2023-07-29T15:20:44;4.53;;;2.93;;
2784;SDS011;57944;48.722;9.316;2023-07-29T15:23:15;5.10;;;2.67;;
2784;SDS011;57944;48.722;9.316;2023-07-29T15:25:45;4.70;;;3.00;;
2784;SDS011;57944;48.722;9.316;2023-07-29T15:28:16;4.63;;;2.80;;
2784;SDS011;57944;48.722;9.316;2023-07-29T15:30:46;5.00;;;2.70;;